sensor_id;sensor_type;location;lat;lon;timestamp;pressure;altitude;pressure_sealevel;temperature;humidity
36234;BME280;43467;50.890;5.982;2024-03-29T00:01:39;97838.34;;;11.02;55.51
36234;BME280;43467;50.890;5.982;2024-03-29T00:04:04;97839.88;;;11.05;55.33
36234;BME280;43467;50.890;5.982;2024-03-29T00:06:31;97835.69;;;11.02;55.61
36234;BME280;43467;50.890;5.982;2024-03-29T00:08:56;97835.97;;;10.99;55.70
36234;BME280;43467;50.890;5.982;2024-03-29T00:11:21;97831.34;;;11.01;55.91
36234;BME280;43467;50.890;5.982;2024-03-29T00:13:47;97828.13;;;10.98;56.05
36234;BME280;43467;50.890;5.982;2024-03-29T00:16:12;97836.91;;;10.98;55.54
36234;BME280;43467;50.890;5.982;2024-03-29T00:18:37;97830.91;;;10.96;55.57
36234;BME280;43467;50.890;5.982;2024-03-29T00:21:03;97837.50;;;11.02;55.61
36234;BME280;43467;50.890;5.982;2024-03-29T00:23:29;97829.25;;;10.95;55.65
36234;BME280;43467;50.890;5.982;2024-03-29T00:25:54;97829.09;;;10.97;55.45
36234;BME280;43467;50.890;5.982;2024-03-29T00:28:23;97841.56;;;11.06;55.38
36234;BME280;43467;50.890;5.982;2024-03-29T00:30:48;97839.75;;;11.06;55.54
36234;BME280;43467;50.890;5.982;2024-03-29T00:33:14;97841.88;;;11.12;55.19
36234;BME280;43467;50.890;5.982;2024-03-29T00:35:40;97842.00;;;11.11;55.27
36234;BME280;43467;50.890;5.982;2024-03-29T00:38:06;97851.88;;;11.09;55.26
36234;BME280;43467;50.890;5.982;2024-03-29T00:40:31;97848.66;;;11.05;55.30
36234;BME280;43467;50.890;5.982;2024-03-29T00:42:56;97845.31;;;11.03;55.26
36234;BME280;43467;50.890;5.982;2024-03-29T00:48:00;97821.78;;;11.10;54.99
36234;BME280;43467;50.890;5.982;2024-03-29T00:50:26;97823.28;;;11.03;54.91
36234;BME280;43467;50.890;5.982;2024-03-29T00:52:51;97812.88;;;11.11;54.84
36234;BME280;43467;50.890;5.982;2024-03-29T00:55:17;97813.72;;;11.11;54.71
36234;BME280;43467;50.890;5.982;2024-03-29T00:57:43;97819.66;;;11.25;54.55
36234;BME280;43467;50.890;5.982;2024-03-29T01:00:09;97823.72;;;11.29;54.32
36234;BME280;43467;50.890;5.982;2024-03-29T01:02:35;97834.16;;;11.30;54.16
36234;BME280;43467;50.890;5.982;2024-03-29T01:05:01;97844.34;;;11.35;53.94
36234;BME280;43467;50.890;5.982;2024-03-29T01:07:26;97852.56;;;11.32;54.14
36234;BME280;43467;50.890;5.982;2024-03-29T01:09:52;97865.41;;;11.36;53.98
36234;BME280;43467;50.890;5.982;2024-03-29T01:12:17;97863.75;;;11.35;53.63
36234;BME280;43467;50.890;5.982;2024-03-29T01:14:44;97870.41;;;11.30;53.89
36234;BME280;43467;50.890;5.982;2024-03-29T01:17:09;97864.59;;;11.36;53.79
36234;BME280;43467;50.890;5.982;2024-03-29T01:19:35;97860.53;;;11.41;53.74
36234;BME280;43467;50.890;5.982;2024-03-29T01:22:00;97846.91;;;11.46;53.75
36234;BME280;43467;50.890;5.982;2024-03-29T01:24:25;97843.56;;;11.44;53.45
36234;BME280;43467;50.890;5.982;2024-03-29T01:26:51;97835.91;;;11.50;53.79
36234;BME280;43467;50.890;5.982;2024-03-29T01:29:17;97837.19;;;11.56;53.25
36234;BME280;43467;50.890;5.982;2024-03-29T01:31:42;97825.47;;;11.58;53.59
36234;BME280;43467;50.890;5.982;2024-03-29T01:34:08;97838.03;;;11.66;53.27
36234;BME280;43467;50.890;5.982;2024-03-29T01:36:33;97830.25;;;11.64;53.02
36234;BME280;43467;50.890;5.982;2024-03-29T01:38:58;97817.28;;;11.71;52.97
36234;BME280;43467;50.890;5.982;2024-03-29T01:41:25;97802.34;;;11.60;52.88
36234;BME280;43467;50.890;5.982;2024-03-29T01:43:52;97791.28;;;11.55;52.54
36234;BME280;43467;50.890;5.982;2024-03-29T01:46:20;97810.13;;;11.52;52.70
36234;BME280;43467;50.890;5.982;2024-03-29T01:48:47;97826.03;;;11.52;52.34
36234;BME280;43467;50.890;5.982;2024-03-29T01:51:16;97829.09;;;11.57;52.39
36234;BME280;43467;50.890;5.982;2024-03-29T01:53:42;97817.41;;;11.60;52.46
36234;BME280;43467;50.890;5.982;2024-03-29T01:56:08;97805.06;;;11.49;52.06
36234;BME280;43467;50.890;5.982;2024-03-29T01:58:34;97818.25;;;11.60;52.65
36234;BME280;43467;50.890;5.982;2024-03-29T02:01:00;97820.09;;;11.70;51.96
36234;BME280;43467;50.890;5.982;2024-03-29T02:03:26;97813.69;;;11.72;51.82
36234;BME280;43467;50.890;5.982;2024-03-29T02:05:52;97814.25;;;11.76;51.87
36234;BME280;43467;50.890;5.982;2024-03-29T02:08:18;97816.44;;;11.71;51.69
36234;BME280;43467;50.890;5.982;2024-03-29T02:10:45;97822.84;;;11.68;51.79
36234;BME280;43467;50.890;5.982;2024-03-29T02:13:12;97827.44;;;11.66;51.71
36234;BME280;43467;50.890;5.982;2024-03-29T02:15:39;97830.94;;;11.66;51.89
36234;BME280;43467;50.890;5.982;2024-03-29T02:18:04;97833.59;;;11.66;51.58
36234;BME280;43467;50.890;5.982;2024-03-29T02:20:30;97832.75;;;11.66;51.83
36234;BME280;43467;50.890;5.982;2024-03-29T02:23:16;97831.34;;;11.62;52.75
36234;BME280;43467;50.890;5.982;2024-03-29T02:25:43;97844.34;;;11.65;53.19
36234;BME280;43467;50.890;5.982;2024-03-29T02:28:08;97855.78;;;11.65;53.86
36234;BME280;43467;50.890;5.982;2024-03-29T02:30:33;97855.91;;;11.64;54.87
36234;BME280;43467;50.890;5.982;2024-03-29T02:32:59;97866.38;;;11.65;55.81
36234;BME280;43467;50.890;5.982;2024-03-29T02:35:26;97853.38;;;11.62;56.84
36234;BME280;43467;50.890;5.982;2024-03-29T02:37:51;97854.22;;;11.63;57.20
36234;BME280;43467;50.890;5.982;2024-03-29T02:40:17;97857.66;;;11.54;57.23
36234;BME280;43467;50.890;5.982;2024-03-29T02:42:43;97852.53;;;11.52;57.87
36234;BME280;43467;50.890;5.982;2024-03-29T02:45:09;97858.88;;;11.40;58.12
36234;BME280;43467;50.890;5.982;2024-03-29T02:47:34;97849.13;;;11.41;58.43
36234;BME280;43467;50.890;5.982;2024-03-29T02:50:01;97853.34;;;11.23;58.90
36234;BME280;43467;50.890;5.982;2024-03-29T02:52:26;97849.88;;;11.22;59.44
36234;BME280;43467;50.890;5.982;2024-03-29T02:54:52;97852.97;;;11.27;59.40
36234;BME280;43467;50.890;5.982;2024-03-29T02:57:17;97843.22;;;11.28;59.71
36234;BME280;43467;50.890;5.982;2024-03-29T02:59:42;97848.81;;;11.34;59.86
36234;BME280;43467;50.890;5.982;2024-03-29T03:02:08;97835.13;;;11.29;60.27
36234;BME280;43467;50.890;5.982;2024-03-29T03:04:33;97841.81;;;11.33;60.33
36234;BME280;43467;50.890;5.982;2024-03-29T03:06:59;97842.31;;;11.17;60.75
36234;BME280;43467;50.890;5.982;2024-03-29T03:09:44;97839.81;;;11.16;61.08
36234;BME280;43467;50.890;5.982;2024-03-29T03:12:31;97818.34;;;11.19;61.03
36234;BME280;43467;50.890;5.982;2024-03-29T03:14:57;97819.47;;;11.16;61.13
36234;BME280;43467;50.890;5.982;2024-03-29T03:17:23;97808.91;;;11.26;61.20
36234;BME280;43467;50.890;5.982;2024-03-29T03:19:51;97815.75;;;11.29;61.45
36234;BME280;43467;50.890;5.982;2024-03-29T03:22:16;97814.53;;;11.33;61.26
36234;BME280;43467;50.890;5.982;2024-03-29T03:24:42;97815.09;;;11.36;61.19
36234;BME280;43467;50.890;5.982;2024-03-29T03:27:07;97810.47;;;11.29;61.56
36234;BME280;43467;50.890;5.982;2024-03-29T03:29:32;97805.72;;;11.32;61.27
36234;BME280;43467;50.890;5.982;2024-03-29T03:31:58;97810.03;;;11.33;61.66
36234;BME280;43467;50.890;5.982;2024-03-29T03:34:23;97810.03;;;11.33;62.24
36234;BME280;43467;50.890;5.982;2024-03-29T03:36:48;97795.97;;;11.33;62.08
36234;BME280;43467;50.890;5.982;2024-03-29T03:39:14;97801.41;;;11.31;62.44
36234;BME280;43467;50.890;5.982;2024-03-29T03:41:39;97794.00;;;11.35;62.20
36234;BME280;43467;50.890;5.982;2024-03-29T03:44:05;97795.31;;;11.40;61.96
36234;BME280;43467;50.890;5.982;2024-03-29T03:46:30;97789.84;;;11.42;61.98
36234;BME280;43467;50.890;5.982;2024-03-29T03:48:55;97791.41;;;11.44;62.03
36234;BME280;43467;50.890;5.982;2024-03-29T03:51:21;97794.47;;;11.49;61.90
36234;BME280;43467;50.890;5.982;2024-03-29T03:53:46;97794.91;;;11.54;61.95
36234;BME280;43467;50.890;5.982;2024-03-29T03:56:11;97793.38;;;11.61;62.30
36234;BME280;43467;50.890;5.982;2024-03-29T03:58:37;97796.47;;;11.66;63.13
36234;BME280;43467;50.890;5.982;2024-03-29T04:01:05;97804.19;;;11.70;63.42
36234;BME280;43467;50.890;5.982;2024-03-29T04:03:31;97805.84;;;11.71;63.00
36234;BME280;43467;50.890;5.982;2024-03-29T04:05:56;97795.97;;;11.73;63.01
36234;BME280;43467;50.890;5.982;2024-03-29T04:08:22;97798.63;;;11.73;63.31
36234;BME280;43467;50.890;5.982;2024-03-29T04:10:47;97795.13;;;11.72;63.35
36234;BME280;43467;50.890;5.982;2024-03-29T04:13:13;97791.66;;;11.72;63.99
36234;BME280;43467;50.890;5.982;2024-03-29T04:15:39;97779.91;;;11.74;63.46
36234;BME280;43467;50.890;5.982;2024-03-29T04:18:04;97786.03;;;11.65;64.93
36234;BME280;43467;50.890;5.982;2024-03-29T04:20:29;97784.34;;;11.64;64.31
36234;BME280;43467;50.890;5.982;2024-03-29T04:22:55;97798.13;;;11.58;64.23
36234;BME280;43467;50.890;5.982;2024-03-29T04:25:20;97787.28;;;11.61;63.96
36234;BME280;43467;50.890;5.982;2024-03-29T04:27:46;97786.72;;;11.67;64.17
36234;BME280;43467;50.890;5.982;2024-03-29T04:30:11;97726.25;;;11.32;64.36
36234;BME280;43467;50.890;5.982;2024-03-29T04:32:37;97737.28;;;11.47;64.35
36234;BME280;43467;50.890;5.982;2024-03-29T04:35:02;97786.59;;;11.69;64.22
36234;BME280;43467;50.890;5.982;2024-03-29T04:37:28;97778.63;;;11.69;63.38
36234;BME280;43467;50.890;5.982;2024-03-29T04:39:53;97778.06;;;11.65;63.87
36234;BME280;43467;50.890;5.982;2024-03-29T04:42:19;97768.03;;;11.69;64.16
36234;BME280;43467;50.890;5.982;2024-03-29T04:44:45;97783.78;;;11.70;64.88
36234;BME280;43467;50.890;5.982;2024-03-29T04:47:10;97776.25;;;11.56;65.95
36234;BME280;43467;50.890;5.982;2024-03-29T04:49:36;97783.47;;;11.54;65.25
36234;BME280;43467;50.890;5.982;2024-03-29T04:52:07;97803.44;;;11.58;66.09
36234;BME280;43467;50.890;5.982;2024-03-29T04:54:33;97777.59;;;11.41;66.62
36234;BME280;43467;50.890;5.982;2024-03-29T04:57:02;97781.22;;;11.49;66.40
36234;BME280;43467;50.890;5.982;2024-03-29T04:59:29;97774.69;;;11.53;66.34
36234;BME280;43467;50.890;5.982;2024-03-29T05:01:55;97780.97;;;11.52;67.50
36234;BME280;43467;50.890;5.982;2024-03-29T05:04:22;97779.16;;;11.53;66.83
36234;BME280;43467;50.890;5.982;2024-03-29T05:06:54;97758.91;;;11.42;67.27
36234;BME280;43467;50.890;5.982;2024-03-29T05:09:21;97779.81;;;11.45;67.82
36234;BME280;43467;50.890;5.982;2024-03-29T05:11:46;97766.84;;;11.33;68.05
36234;BME280;43467;50.890;5.982;2024-03-29T05:14:14;97787.59;;;11.37;67.40
36234;BME280;43467;50.890;5.982;2024-03-29T05:16:40;97769.34;;;11.34;66.87
36234;BME280;43467;50.890;5.982;2024-03-29T05:19:06;97764.59;;;11.38;66.63
36234;BME280;43467;50.890;5.982;2024-03-29T05:21:31;97752.03;;;11.30;67.21
36234;BME280;43467;50.890;5.982;2024-03-29T05:23:57;97752.59;;;11.34;67.48
36234;BME280;43467;50.890;5.982;2024-03-29T05:26:22;97742.38;;;11.19;67.86
36234;BME280;43467;50.890;5.982;2024-03-29T05:28:48;97753.84;;;11.30;68.00
36234;BME280;43467;50.890;5.982;2024-03-29T05:31:14;97752.03;;;11.30;67.85
36234;BME280;43467;50.890;5.982;2024-03-29T05:33:41;97706.22;;;10.99;68.51
36234;BME280;43467;50.890;5.982;2024-03-29T05:36:07;97704.03;;;11.04;68.15
36234;BME280;43467;50.890;5.982;2024-03-29T05:38:34;97737.38;;;11.26;68.63
36234;BME280;43467;50.890;5.982;2024-03-29T05:40:59;97688.81;;;11.06;67.86
36234;BME280;43467;50.890;5.982;2024-03-29T05:43:24;97674.69;;;10.96;68.38
36234;BME280;43467;50.890;5.982;2024-03-29T05:45:52;97728.75;;;11.24;68.05
36234;BME280;43467;50.890;5.982;2024-03-29T05:48:18;97765.72;;;11.35;68.63
36234;BME280;43467;50.890;5.982;2024-03-29T05:50:44;97760.13;;;11.38;68.33
36234;BME280;43467;50.890;5.982;2024-03-29T05:53:10;97725.69;;;11.29;68.51
36234;BME280;43467;50.890;5.982;2024-03-29T05:55:36;97731.00;;;11.29;69.30
36234;BME280;43467;50.890;5.982;2024-03-29T05:58:02;97734.59;;;11.28;69.41
36234;BME280;43467;50.890;5.982;2024-03-29T06:00:28;97740.03;;;11.26;70.11
36234;BME280;43467;50.890;5.982;2024-03-29T06:02:54;97725.50;;;11.11;70.14
36234;BME280;43467;50.890;5.982;2024-03-29T06:05:19;97737.94;;;11.20;70.10
36234;BME280;43467;50.890;5.982;2024-03-29T06:07:45;97728.03;;;11.12;70.18
36234;BME280;43467;50.890;5.982;2024-03-29T06:10:10;97713.59;;;10.96;71.23
36234;BME280;43467;50.890;5.982;2024-03-29T06:12:39;97690.53;;;10.77;70.68
36234;BME280;43467;50.890;5.982;2024-03-29T06:15:05;97780.88;;;11.24;71.64
36234;BME280;43467;50.890;5.982;2024-03-29T06:17:49;97765.91;;;11.13;71.88
36234;BME280;43467;50.890;5.982;2024-03-29T06:20:15;97723.41;;;10.84;72.27
36234;BME280;43467;50.890;5.982;2024-03-29T06:22:40;97743.69;;;10.95;72.54
36234;BME280;43467;50.890;5.982;2024-03-29T06:25:06;97760.59;;;11.13;72.55
36234;BME280;43467;50.890;5.982;2024-03-29T06:27:32;97764.78;;;11.06;73.05
36234;BME280;43467;50.890;5.982;2024-03-29T06:29:59;97776.44;;;11.24;72.77
36234;BME280;43467;50.890;5.982;2024-03-29T06:32:24;97777.13;;;11.26;73.33
36234;BME280;43467;50.890;5.982;2024-03-29T06:34:50;97787.41;;;11.19;73.58
36234;BME280;43467;50.890;5.982;2024-03-29T06:37:15;97785.22;;;11.25;73.43
36234;BME280;43467;50.890;5.982;2024-03-29T06:39:41;97765.34;;;11.09;73.82
36234;BME280;43467;50.890;5.982;2024-03-29T06:42:08;97758.06;;;11.02;74.28
36234;BME280;43467;50.890;5.982;2024-03-29T06:44:34;97788.50;;;11.17;74.79
36234;BME280;43467;50.890;5.982;2024-03-29T06:47:00;97793.56;;;11.20;75.37
36234;BME280;43467;50.890;5.982;2024-03-29T06:49:26;97784.38;;;11.24;75.30
36234;BME280;43467;50.890;5.982;2024-03-29T06:51:51;97790.09;;;11.29;75.65
36234;BME280;43467;50.890;5.982;2024-03-29T06:54:17;97774.19;;;11.29;75.44
36234;BME280;43467;50.890;5.982;2024-03-29T06:56:48;97787.19;;;11.32;75.44
36234;BME280;43467;50.890;5.982;2024-03-29T06:59:13;97786.13;;;11.44;75.51
36234;BME280;43467;50.890;5.982;2024-03-29T07:01:38;97774.47;;;11.26;75.96
36234;BME280;43467;50.890;5.982;2024-03-29T07:04:04;97791.81;;;11.40;76.22
36234;BME280;43467;50.890;5.982;2024-03-29T07:06:29;97761.53;;;11.33;75.83
36234;BME280;43467;50.890;5.982;2024-03-29T07:08:55;97778.25;;;11.33;76.71
36234;BME280;43467;50.890;5.982;2024-03-29T07:11:20;97796.56;;;11.46;76.62
36234;BME280;43467;50.890;5.982;2024-03-29T07:13:46;97776.59;;;11.32;76.36
36234;BME280;43467;50.890;5.982;2024-03-29T07:16:11;97787.34;;;11.40;76.70
36234;BME280;43467;50.890;5.982;2024-03-29T07:18:37;97815.09;;;11.46;77.82
36234;BME280;43467;50.890;5.982;2024-03-29T07:21:02;97818.47;;;11.57;77.90
36234;BME280;43467;50.890;5.982;2024-03-29T07:23:28;97824.94;;;11.64;77.24
36234;BME280;43467;50.890;5.982;2024-03-29T07:26:04;97814.47;;;11.63;78.00
36234;BME280;43467;50.890;5.982;2024-03-29T07:28:29;97833.13;;;11.61;77.93
36234;BME280;43467;50.890;5.982;2024-03-29T07:30:56;97828.34;;;11.46;78.83
36234;BME280;43467;50.890;5.982;2024-03-29T07:33:25;97806.16;;;11.37;78.37
36234;BME280;43467;50.890;5.982;2024-03-29T07:35:54;97845.44;;;11.62;78.89
36234;BME280;43467;50.890;5.982;2024-03-29T07:38:20;97831.50;;;11.60;79.16
36234;BME280;43467;50.890;5.982;2024-03-29T07:40:46;97830.44;;;11.73;78.22
36234;BME280;43467;50.890;5.982;2024-03-29T07:43:12;97830.59;;;11.81;78.60
36234;BME280;43467;50.890;5.982;2024-03-29T07:45:42;97833.69;;;11.86;78.34
36234;BME280;43467;50.890;5.982;2024-03-29T07:48:11;97830.59;;;11.90;78.30
36234;BME280;43467;50.890;5.982;2024-03-29T07:50:38;97829.34;;;11.85;79.21
36234;BME280;43467;50.890;5.982;2024-03-29T07:53:03;97834.25;;;11.89;79.07
36234;BME280;43467;50.890;5.982;2024-03-29T07:55:29;97830.31;;;11.84;79.09
36234;BME280;43467;50.890;5.982;2024-03-29T07:57:54;97829.50;;;11.93;79.10
36234;BME280;43467;50.890;5.982;2024-03-29T08:00:21;97839.00;;;11.95;79.46
36234;BME280;43467;50.890;5.982;2024-03-29T08:02:47;97845.00;;;12.07;78.74
36234;BME280;43467;50.890;5.982;2024-03-29T08:05:13;97849.63;;;12.15;78.03
36234;BME280;43467;50.890;5.982;2024-03-29T08:07:39;97797.94;;;11.80;78.11
36234;BME280;43467;50.890;5.982;2024-03-29T08:10:04;97839.59;;;12.18;78.52
36234;BME280;43467;50.890;5.982;2024-03-29T08:12:31;97833.69;;;12.15;78.41
36234;BME280;43467;50.890;5.982;2024-03-29T08:14:59;97843.91;;;12.19;78.18
36234;BME280;43467;50.890;5.982;2024-03-29T08:17:24;97849.22;;;12.19;78.07
36234;BME280;43467;50.890;5.982;2024-03-29T08:19:50;97843.66;;;12.22;77.85
36234;BME280;43467;50.890;5.982;2024-03-29T08:22:15;97831.22;;;12.32;77.17
36234;BME280;43467;50.890;5.982;2024-03-29T08:24:41;97834.44;;;12.45;77.38
36234;BME280;43467;50.890;5.982;2024-03-29T08:27:06;97849.66;;;12.53;76.91
36234;BME280;43467;50.890;5.982;2024-03-29T08:29:31;97851.63;;;12.51;77.30
36234;BME280;43467;50.890;5.982;2024-03-29T08:31:57;97854.28;;;12.51;76.68
36234;BME280;43467;50.890;5.982;2024-03-29T08:34:22;97852.72;;;12.48;76.42
36234;BME280;43467;50.890;5.982;2024-03-29T08:36:48;97871.72;;;12.44;76.15
36234;BME280;43467;50.890;5.982;2024-03-29T08:39:13;97859.84;;;12.48;76.43
36234;BME280;43467;50.890;5.982;2024-03-29T08:41:38;97855.81;;;12.53;76.34
36234;BME280;43467;50.890;5.982;2024-03-29T08:44:06;97853.41;;;12.60;75.65
36234;BME280;43467;50.890;5.982;2024-03-29T08:46:32;97856.50;;;12.65;75.34
36234;BME280;43467;50.890;5.982;2024-03-29T08:48:57;97863.63;;;12.65;75.15
36234;BME280;43467;50.890;5.982;2024-03-29T08:51:23;97857.47;;;12.64;75.47
36234;BME280;43467;50.890;5.982;2024-03-29T08:53:49;97849.38;;;12.75;75.16
36234;BME280;43467;50.890;5.982;2024-03-29T08:56:15;97859.84;;;12.86;74.78
36234;BME280;43467;50.890;5.982;2024-03-29T08:58:41;97865.81;;;12.88;74.39
36234;BME280;43467;50.890;5.982;2024-03-29T09:01:06;97849.94;;;12.79;73.76
36234;BME280;43467;50.890;5.982;2024-03-29T09:03:32;97862.91;;;12.82;73.92
36234;BME280;43467;50.890;5.982;2024-03-29T09:05:57;97874.09;;;12.85;73.83
36234;BME280;43467;50.890;5.982;2024-03-29T09:08:22;97876.88;;;12.84;73.45
36234;BME280;43467;50.890;5.982;2024-03-29T09:10:48;97888.75;;;12.89;72.84
36234;BME280;43467;50.890;5.982;2024-03-29T09:13:13;97887.66;;;12.82;73.18
36234;BME280;43467;50.890;5.982;2024-03-29T09:15:39;97880.66;;;12.81;73.71
36234;BME280;43467;50.890;5.982;2024-03-29T09:18:05;97889.59;;;12.90;73.75
36234;BME280;43467;50.890;5.982;2024-03-29T09:20:44;97884.41;;;12.88;73.39
36234;BME280;43467;50.890;5.982;2024-03-29T09:23:10;97886.38;;;12.96;73.45
36234;BME280;43467;50.890;5.982;2024-03-29T09:25:40;97877.00;;;13.01;72.97
36234;BME280;43467;50.890;5.982;2024-03-29T09:28:05;97883.41;;;13.09;72.75
36234;BME280;43467;50.890;5.982;2024-03-29T09:30:31;97879.94;;;13.18;72.31
36234;BME280;43467;50.890;5.982;2024-03-29T09:32:57;97880.91;;;13.07;72.01
36234;BME280;43467;50.890;5.982;2024-03-29T09:35:22;97896.84;;;13.07;71.20
36234;BME280;43467;50.890;5.982;2024-03-29T09:37:48;97897.44;;;13.20;71.44
36234;BME280;43467;50.890;5.982;2024-03-29T09:40:13;97900.34;;;13.27;71.76
36234;BME280;43467;50.890;5.982;2024-03-29T09:42:39;97919.63;;;13.29;72.07
36234;BME280;43467;50.890;5.982;2024-03-29T09:45:06;97927.03;;;13.35;71.51
36234;BME280;43467;50.890;5.982;2024-03-29T09:47:33;97920.31;;;13.31;71.17
36234;BME280;43467;50.890;5.982;2024-03-29T09:50:00;97939.19;;;13.37;70.78
36234;BME280;43467;50.890;5.982;2024-03-29T09:52:28;97948.16;;;13.36;70.76
36234;BME280;43467;50.890;5.982;2024-03-29T09:54:55;97952.47;;;13.37;70.80
36234;BME280;43467;50.890;5.982;2024-03-29T09:57:21;97939.16;;;13.47;71.17
36234;BME280;43467;50.890;5.982;2024-03-29T09:59:46;97936.81;;;13.44;70.86
36234;BME280;43467;50.890;5.982;2024-03-29T10:02:16;97931.44;;;13.54;70.82
36234;BME280;43467;50.890;5.982;2024-03-29T10:04:42;97940.56;;;13.51;71.14
36234;BME280;43467;50.890;5.982;2024-03-29T10:07:10;97946.56;;;13.53;70.70
36234;BME280;43467;50.890;5.982;2024-03-29T10:09:37;97924.19;;;13.56;70.92
36234;BME280;43467;50.890;5.982;2024-03-29T10:12:04;97934.63;;;13.67;69.38
36234;BME280;43467;50.890;5.982;2024-03-29T10:14:31;97938.53;;;13.72;68.34
36234;BME280;43467;50.890;5.982;2024-03-29T10:16:59;97936.44;;;13.76;67.24
36234;BME280;43467;50.890;5.982;2024-03-29T10:19:24;97924.22;;;13.83;67.62
36234;BME280;43467;50.890;5.982;2024-03-29T10:21:50;97928.25;;;13.87;67.15
36234;BME280;43467;50.890;5.982;2024-03-29T10:24:16;97919.16;;;13.89;67.23
36234;BME280;43467;50.890;5.982;2024-03-29T10:26:45;97925.97;;;14.02;66.33
36234;BME280;43467;50.890;5.982;2024-03-29T10:29:11;97934.03;;;14.10;66.43
36234;BME280;43467;50.890;5.982;2024-03-29T10:31:37;97936.63;;;14.19;65.92
36234;BME280;43467;50.890;5.982;2024-03-29T10:34:03;97927.69;;;14.20;65.42
36234;BME280;43467;50.890;5.982;2024-03-29T10:36:31;97934.81;;;14.20;64.41
36234;BME280;43467;50.890;5.982;2024-03-29T10:39:02;97935.44;;;14.14;64.23
36234;BME280;43467;50.890;5.982;2024-03-29T10:41:29;97940.97;;;14.20;64.58
36234;BME280;43467;50.890;5.982;2024-03-29T10:43:55;97935.56;;;14.12;64.70
36234;BME280;43467;50.890;5.982;2024-03-29T10:46:23;97935.25;;;14.15;65.35
36234;BME280;43467;50.890;5.982;2024-03-29T10:48:49;97939.47;;;14.18;64.97
36234;BME280;43467;50.890;5.982;2024-03-29T10:51:14;97940.13;;;14.20;63.85
36234;BME280;43467;50.890;5.982;2024-03-29T10:53:40;97931.75;;;14.15;63.93
36234;BME280;43467;50.890;5.982;2024-03-29T10:56:07;97947.88;;;14.13;64.38
36234;BME280;43467;50.890;5.982;2024-03-29T10:58:40;97952.19;;;14.14;64.16
36234;BME280;43467;50.890;5.982;2024-03-29T11:01:08;97954.06;;;14.31;65.35
36234;BME280;43467;50.890;5.982;2024-03-29T11:03:41;97944.72;;;14.27;63.67
36234;BME280;43467;50.890;5.982;2024-03-29T11:06:12;97949.63;;;14.22;63.14
36234;BME280;43467;50.890;5.982;2024-03-29T11:08:38;97966.84;;;14.28;63.61
36234;BME280;43467;50.890;5.982;2024-03-29T11:11:12;97966.19;;;14.26;63.95
36234;BME280;43467;50.890;5.982;2024-03-29T11:13:49;97964.72;;;14.31;63.80
36234;BME280;43467;50.890;5.982;2024-03-29T11:16:15;97960.25;;;14.32;63.83
36234;BME280;43467;50.890;5.982;2024-03-29T11:18:45;97956.03;;;14.39;63.49
36234;BME280;43467;50.890;5.982;2024-03-29T11:21:16;97954.19;;;14.39;63.17
36234;BME280;43467;50.890;5.982;2024-03-29T11:23:49;97947.91;;;14.40;62.89
36234;BME280;43467;50.890;5.982;2024-03-29T11:26:15;97944.59;;;14.29;62.75
36234;BME280;43467;50.890;5.982;2024-03-29T11:28:48;97975.22;;;14.43;63.19
36234;BME280;43467;50.890;5.982;2024-03-29T11:31:14;97987.78;;;14.50;63.51
36234;BME280;43467;50.890;5.982;2024-03-29T11:36:23;97993.88;;;14.60;63.00
36234;BME280;43467;50.890;5.982;2024-03-29T11:38:52;98016.47;;;14.56;63.22
36234;BME280;43467;50.890;5.982;2024-03-29T11:41:20;98031.13;;;14.43;62.23
36234;BME280;43467;50.890;5.982;2024-03-29T11:43:50;98014.47;;;14.40;62.55
36234;BME280;43467;50.890;5.982;2024-03-29T11:46:16;98027.09;;;14.38;62.04
36234;BME280;43467;50.890;5.982;2024-03-29T11:48:42;98020.19;;;14.46;62.16
36234;BME280;43467;50.890;5.982;2024-03-29T11:51:10;98023.03;;;14.34;62.22
36234;BME280;43467;50.890;5.982;2024-03-29T11:53:36;98021.47;;;14.41;62.82
36234;BME280;43467;50.890;5.982;2024-03-29T11:56:03;98012.72;;;14.49;62.57
36234;BME280;43467;50.890;5.982;2024-03-29T11:58:30;98023.78;;;14.54;62.43
36234;BME280;43467;50.890;5.982;2024-03-29T12:00:58;98022.63;;;14.57;62.76
36234;BME280;43467;50.890;5.982;2024-03-29T12:03:25;98017.09;;;14.68;63.04
36234;BME280;43467;50.890;5.982;2024-03-29T12:05:52;98012.22;;;14.63;62.38
36234;BME280;43467;50.890;5.982;2024-03-29T12:08:20;98024.81;;;14.71;62.36
36234;BME280;43467;50.890;5.982;2024-03-29T12:10:45;98026.47;;;14.72;62.58
36234;BME280;43467;50.890;5.982;2024-03-29T12:13:11;98029.13;;;14.72;62.26
36234;BME280;43467;50.890;5.982;2024-03-29T12:15:36;98034.41;;;14.81;62.07
36234;BME280;43467;50.890;5.982;2024-03-29T12:18:05;98028.16;;;14.73;61.42
36234;BME280;43467;50.890;5.982;2024-03-29T12:20:34;98029.13;;;14.72;61.39
36234;BME280;43467;50.890;5.982;2024-03-29T12:23:05;98020.28;;;14.71;61.85
36234;BME280;43467;50.890;5.982;2024-03-29T12:25:32;98031.03;;;14.79;61.90
36234;BME280;43467;50.890;5.982;2024-03-29T12:27:59;98021.13;;;14.72;61.73
36234;BME280;43467;50.890;5.982;2024-03-29T12:30:25;98027.63;;;14.69;62.32
36234;BME280;43467;50.890;5.982;2024-03-29T12:33:05;98029.13;;;14.72;62.74
36234;BME280;43467;50.890;5.982;2024-03-29T12:35:34;98036.00;;;14.74;62.51
36234;BME280;43467;50.890;5.982;2024-03-29T12:38:01;98041.59;;;14.71;61.99
36234;BME280;43467;50.890;5.982;2024-03-29T12:40:28;98027.06;;;14.66;61.11
36234;BME280;43467;50.890;5.982;2024-03-29T12:42:55;98035.47;;;14.71;61.04
36234;BME280;43467;50.890;5.982;2024-03-29T12:45:22;98020.91;;;14.65;59.76
36234;BME280;43467;50.890;5.982;2024-03-29T12:47:48;98018.66;;;14.70;59.76
36234;BME280;43467;50.890;5.982;2024-03-29T12:53:00;98014.78;;;14.82;59.32
36234;BME280;43467;50.890;5.982;2024-03-29T12:55:28;98027.97;;;15.02;59.26
36234;BME280;43467;50.890;5.982;2024-03-29T12:57:56;98035.81;;;15.03;58.57
36234;BME280;43467;50.890;5.982;2024-03-29T13:00:22;98037.88;;;14.92;58.43
36234;BME280;43467;50.890;5.982;2024-03-29T13:02:48;98036.41;;;14.97;59.16
36234;BME280;43467;50.890;5.982;2024-03-29T13:05:14;98027.81;;;15.03;58.43